createdAt,value
2023-05-03T00:00:41.892Z,8.49
2023-05-03T00:03:08.502Z,8.48
2023-05-03T00:05:35.184Z,8.46
2023-05-03T00:08:02.329Z,8.39
2023-05-03T00:10:29.456Z,8.36
2023-05-03T00:12:56.799Z,8.31
2023-05-03T00:15:23.417Z,8.28
2023-05-03T00:17:50.204Z,8.27
2023-05-03T00:20:17.624Z,8.24
2023-05-03T00:22:44.186Z,8.20
2023-05-03T00:25:10.757Z,8.19
2023-05-03T00:27:37.395Z,8.11
2023-05-03T00:30:04.681Z,8.02
2023-05-03T00:32:31.494Z,7.93
2023-05-03T00:34:58.290Z,7.85
2023-05-03T00:37:25.028Z,7.82
2023-05-03T00:39:51.965Z,7.81
2023-05-03T00:42:18.481Z,7.82
2023-05-03T00:44:45.094Z,7.82
2023-05-03T00:47:11.961Z,7.84
2023-05-03T00:49:38.844Z,7.85
2023-05-03T00:52:06.702Z,7.82
2023-05-03T00:54:35.246Z,7.76
2023-05-03T00:57:02.724Z,7.74
2023-05-03T00:59:29.317Z,7.74
2023-05-03T01:01:55.936Z,7.71
2023-05-03T01:04:23.274Z,7.71
2023-05-03T01:07:25.568Z,7.70
2023-05-03T01:10:01.047Z,7.66
2023-05-03T01:12:37.181Z,7.63
2023-05-03T01:15:03.733Z,7.69
2023-05-03T01:17:34.656Z,7.69
2023-05-03T01:20:05.718Z,7.66
2023-05-03T01:22:36.605Z,7.63
2023-05-03T01:25:08.021Z,7.58
2023-05-03T01:27:34.854Z,7.53
2023-05-03T01:30:03.136Z,7.54
2023-05-03T01:32:36.827Z,7.52
2023-05-03T01:35:11.616Z,7.52
2023-05-03T01:37:39.273Z,7.51
2023-05-03T01:40:10.349Z,7.47
2023-05-03T01:42:38.623Z,7.43
2023-05-03T01:45:05.510Z,7.38
2023-05-03T01:47:32.615Z,7.35
2023-05-03T01:49:59.298Z,7.34
2023-05-03T01:52:25.975Z,7.34
2023-05-03T01:54:52.479Z,7.34
2023-05-03T01:57:19.003Z,7.36
2023-05-03T01:59:45.594Z,7.38
2023-05-03T02:02:12.143Z,7.38
2023-05-03T02:04:40.857Z,7.38
2023-05-03T02:07:07.593Z,7.42
2023-05-03T02:09:34.157Z,7.46
2023-05-03T02:12:00.943Z,7.42
2023-05-03T02:14:28.438Z,7.41
2023-05-03T02:16:55.796Z,7.38
2023-05-03T02:19:22.496Z,7.31
2023-05-03T02:21:49.115Z,7.27
2023-05-03T02:24:16.628Z,7.23
2023-05-03T02:26:43.171Z,7.22
2023-05-03T02:29:10.219Z,7.21
2023-05-03T02:31:36.929Z,7.23
2023-05-03T02:34:04.398Z,7.27
2023-05-03T02:36:31.215Z,7.26
2023-05-03T02:39:00.383Z,7.26
2023-05-03T02:41:27.208Z,7.30
2023-05-03T02:43:53.907Z,7.30
2023-05-03T02:46:20.609Z,7.23
2023-05-03T02:48:47.167Z,7.23
2023-05-03T02:51:13.990Z,7.23
2023-05-03T02:53:40.712Z,7.20
2023-05-03T02:56:07.571Z,7.17
2023-05-03T02:58:34.301Z,7.17
2023-05-03T03:01:03.083Z,7.19
2023-05-03T03:03:30.615Z,7.22
2023-05-03T03:05:57.233Z,7.23
2023-05-03T03:08:23.931Z,7.22
2023-05-03T03:10:51.041Z,7.21
2023-05-03T03:13:17.642Z,7.19
2023-05-03T03:15:44.277Z,7.18
2023-05-03T03:18:11.052Z,7.15
2023-05-03T03:20:37.634Z,7.16
2023-05-03T03:23:04.185Z,7.18
2023-05-03T03:25:31.714Z,7.14
2023-05-03T03:27:58.716Z,7.08
2023-05-03T03:30:25.876Z,7.14
2023-05-03T03:33:12.370Z,7.21
2023-05-03T03:35:41.280Z,7.27
2023-05-03T03:38:08.758Z,7.31
2023-05-03T03:40:39.978Z,7.31
2023-05-03T03:43:06.539Z,7.31
2023-05-03T03:45:33.196Z,7.31
2023-05-03T03:48:00.717Z,7.29
2023-05-03T03:50:27.956Z,7.31
2023-05-03T03:52:54.561Z,7.32
2023-05-03T03:55:21.246Z,7.31
2023-05-03T03:57:49.803Z,7.30
2023-05-03T04:00:16.797Z,7.28
2023-05-03T04:02:49.532Z,7.26
2023-05-03T04:05:18.134Z,7.20
2023-05-03T04:07:45.982Z,7.20
2023-05-03T04:10:13.968Z,7.20
2023-05-03T04:12:41.228Z,7.23
2023-05-03T04:15:08.195Z,7.22
2023-05-03T04:17:35.873Z,7.21
2023-05-03T04:20:11.076Z,7.19
2023-05-03T04:22:40.505Z,7.17
2023-05-03T04:25:10.930Z,7.17
2023-05-03T04:27:38.392Z,7.14
2023-05-03T04:30:06.639Z,7.11
2023-05-03T04:32:37.792Z,7.09
2023-05-03T04:35:10.868Z,7.05
2023-05-03T04:37:39.459Z,7.00
2023-05-03T04:40:12.396Z,6.98
2023-05-03T04:42:43.790Z,6.99
2023-05-03T04:45:10.985Z,7.02
2023-05-03T04:47:37.691Z,7.10
2023-05-03T04:50:04.665Z,7.20
2023-05-03T04:52:31.960Z,7.30
2023-05-03T04:54:58.480Z,7.34
2023-05-03T04:57:25.909Z,7.42
2023-05-03T04:59:54.154Z,7.50
2023-05-03T05:02:21.734Z,7.59
2023-05-03T05:04:48.639Z,7.62
2023-05-03T05:07:15.563Z,7.69
2023-05-03T05:09:44.243Z,7.74
2023-05-03T05:12:11.255Z,7.86
2023-05-03T05:14:40.874Z,8.00
2023-05-03T05:17:08.508Z,8.06
2023-05-03T05:19:35.945Z,8.17
2023-05-03T05:22:02.591Z,8.25
2023-05-03T05:24:41.351Z,8.24
2023-05-03T05:27:09.258Z,8.27
2023-05-03T05:29:36.112Z,8.35
2023-05-03T05:32:05.387Z,8.40
2023-05-03T05:34:42.109Z,8.55
2023-05-03T05:37:12.647Z,8.68
2023-05-03T05:39:39.407Z,8.73
2023-05-03T05:42:06.171Z,8.88
2023-05-03T05:44:32.945Z,8.98
2023-05-03T05:46:59.652Z,9.11
2023-05-03T05:49:26.525Z,9.27
2023-05-03T05:51:53.040Z,9.48
2023-05-03T05:54:19.804Z,9.50
2023-05-03T05:56:46.609Z,9.65
2023-05-03T05:59:13.296Z,9.80
2023-05-03T06:01:44.628Z,9.50
2023-05-03T06:04:12.509Z,9.12
2023-05-03T06:06:40.103Z,9.05
2023-05-03T06:09:13.272Z,8.85
2023-05-03T06:11:52.164Z,8.68
2023-05-03T06:14:20.690Z,8.70
2023-05-03T06:16:47.902Z,8.83
2023-05-03T06:19:14.999Z,8.97
2023-05-03T06:21:41.539Z,9.07
2023-05-03T06:24:08.181Z,8.98
2023-05-03T06:26:34.783Z,8.80
2023-05-03T06:29:02.890Z,8.51
2023-05-03T06:31:30.098Z,8.44
2023-05-03T06:33:57.787Z,8.47
2023-05-03T06:36:25.948Z,8.46
2023-05-03T06:38:52.488Z,8.45
2023-05-03T06:41:19.006Z,8.50
2023-05-03T06:43:45.728Z,8.48
2023-05-03T06:46:13.225Z,8.58
2023-05-03T06:48:39.908Z,8.42
2023-05-03T06:51:06.567Z,8.50
2023-05-03T06:53:33.114Z,8.47
2023-05-03T06:55:59.859Z,8.57
2023-05-03T06:58:26.397Z,8.65
2023-05-03T07:00:54.040Z,8.80
2023-05-03T07:03:21.154Z,8.62
2023-05-03T07:05:48.235Z,8.50
2023-05-03T07:08:14.782Z,8.62
2023-05-03T07:10:41.951Z,8.52
2023-05-03T07:13:08.608Z,8.47
2023-05-03T07:15:35.302Z,8.37
2023-05-03T07:18:01.891Z,8.25
2023-05-03T07:20:28.621Z,8.21
2023-05-03T07:22:55.162Z,8.19
2023-05-03T07:25:21.726Z,8.35
2023-05-03T07:27:48.275Z,8.47
2023-05-03T07:30:14.897Z,8.59
2023-05-03T07:32:41.545Z,8.57
2023-05-03T07:35:08.351Z,8.54
2023-05-03T07:37:34.902Z,8.54
2023-05-03T07:40:01.729Z,8.51
2023-05-03T07:42:28.589Z,8.43
2023-05-03T07:44:55.535Z,8.35
2023-05-03T07:47:22.448Z,8.41
2023-05-03T07:49:50.886Z,8.43
2023-05-03T07:52:18.059Z,8.50
2023-05-03T07:54:45.915Z,8.44
2023-05-03T07:57:16.414Z,8.54
2023-05-03T07:59:43.469Z,8.75
2023-05-03T08:02:10.311Z,8.96
2023-05-03T08:04:38.062Z,9.09
2023-05-03T08:07:04.775Z,9.17
2023-05-03T08:09:31.338Z,9.26
2023-05-03T08:11:57.941Z,9.28
2023-05-03T08:14:24.578Z,9.20
2023-05-03T08:16:51.528Z,9.19
2023-05-03T08:19:18.052Z,9.22
2023-05-03T08:21:44.595Z,9.34
2023-05-03T08:24:12.056Z,9.33
2023-05-03T08:26:40.809Z,9.60
2023-05-03T08:29:07.585Z,9.80
2023-05-03T08:31:34.931Z,9.92
2023-05-03T08:34:01.722Z,9.88
2023-05-03T08:36:28.248Z,9.91
2023-05-03T08:38:54.805Z,10.24
2023-05-03T08:41:30.509Z,10.82
2023-05-03T08:43:58.244Z,10.95
2023-05-03T08:46:28.311Z,10.48
2023-05-03T08:48:55.507Z,10.57
2023-05-03T08:51:22.820Z,10.52
2023-05-03T08:53:50.110Z,10.75
2023-05-03T08:56:21.340Z,10.93
2023-05-03T08:58:47.903Z,11.43
2023-05-03T09:01:14.594Z,11.49
2023-05-03T09:03:49.700Z,11.81
2023-05-03T09:06:20.502Z,12.20
2023-05-03T09:08:47.086Z,12.16
2023-05-03T09:11:25.865Z,11.98
2023-05-03T09:13:53.178Z,11.85
2023-05-03T09:16:23.981Z,11.72
2023-05-03T09:19:00.808Z,11.66
2023-05-03T09:21:28.239Z,11.74
2023-05-03T09:23:54.887Z,12.00
2023-05-03T09:26:47.873Z,12.22
2023-05-03T09:29:31.134Z,12.72
2023-05-03T09:31:59.614Z,13.16
2023-05-03T09:34:26.230Z,13.33
2023-05-03T09:36:52.862Z,13.47
2023-05-03T09:39:19.949Z,13.66
2023-05-03T09:41:46.900Z,13.78
2023-05-03T09:44:13.669Z,14.23
2023-05-03T09:46:40.219Z,13.81
2023-05-03T09:49:06.904Z,13.45
2023-05-03T09:51:33.714Z,13.44
2023-05-03T09:54:00.443Z,13.65
2023-05-03T09:56:27.044Z,13.68
2023-05-03T09:58:54.448Z,13.74
2023-05-03T10:01:23.968Z,13.68
2023-05-03T10:03:57.532Z,13.77
2023-05-03T10:06:25.153Z,14.15
2023-05-03T10:08:57.775Z,14.49
2023-05-03T10:11:26.845Z,15.00
2023-05-03T10:13:54.032Z,14.82
2023-05-03T10:16:22.383Z,14.62
2023-05-03T10:19:00.271Z,14.91
2023-05-03T10:21:35.370Z,14.97
2023-05-03T10:24:13.028Z,14.88
2023-05-03T10:26:45.187Z,14.98
2023-05-03T10:29:30.637Z,15.09
2023-05-03T10:31:57.283Z,14.98
2023-05-03T10:34:24.725Z,14.72
2023-05-03T10:36:53.372Z,15.68
2023-05-03T10:39:20.609Z,16.76
2023-05-03T10:42:03.499Z,16.73
2023-05-03T10:44:41.202Z,17.12
2023-05-03T10:47:11.567Z,16.38
2023-05-03T10:49:38.187Z,15.97
2023-05-03T10:52:24.644Z,16.22
2023-05-03T10:54:51.198Z,15.87
2023-05-03T10:57:17.972Z,15.67
2023-05-03T10:59:49.170Z,15.49
2023-05-03T11:02:22.732Z,15.14
2023-05-03T11:04:50.170Z,15.21
2023-05-03T11:07:21.612Z,15.44
2023-05-03T11:09:48.323Z,15.40
2023-05-03T11:12:14.917Z,15.59
2023-05-03T11:14:41.956Z,16.17
2023-05-03T11:17:08.574Z,17.19
2023-05-03T11:19:35.394Z,17.92
2023-05-03T11:22:02.156Z,17.83
2023-05-03T11:24:28.800Z,17.80
2023-05-03T11:26:55.496Z,17.67
2023-05-03T11:29:24.047Z,17.71
2023-05-03T11:31:51.706Z,17.38
2023-05-03T11:34:18.670Z,17.37
2023-05-03T11:36:45.309Z,16.68
2023-05-03T11:39:13.174Z,16.66
2023-05-03T11:41:39.828Z,17.36
2023-05-03T11:44:15.909Z,18.15
2023-05-03T11:46:44.639Z,18.15
2023-05-03T11:49:17.010Z,18.11
2023-05-03T11:51:46.478Z,17.91
2023-05-03T11:56:47.466Z,18.21
2023-05-03T11:59:14.105Z,18.05
2023-05-03T12:01:41.536Z,17.83
2023-05-03T12:06:18.129Z,17.38
2023-05-03T12:08:45.442Z,16.85
2023-05-03T12:11:13.967Z,17.00
2023-05-03T12:13:41.741Z,17.37
2023-05-03T12:16:14.232Z,18.44
2023-05-03T12:18:56.148Z,18.37
2023-05-03T12:23:57.419Z,16.99
2023-05-03T12:26:26.450Z,17.93
2023-05-03T12:28:56.143Z,17.90
2023-05-03T12:31:24.078Z,17.47
2023-05-03T12:36:24.493Z,17.04
2023-05-03T12:38:56.051Z,17.04
2023-05-03T12:43:58.916Z,16.37
2023-05-03T12:46:34.571Z,16.36
2023-05-03T12:49:06.424Z,16.73
2023-05-03T12:51:34.222Z,17.03
2023-05-03T12:54:02.126Z,17.10
2023-05-03T12:56:32.537Z,17.57
2023-05-03T12:59:27.760Z,17.95
2023-05-03T13:02:41.570Z,17.20
2023-05-03T13:04:57.079Z,16.94
2023-05-03T13:07:29.550Z,16.52
2023-05-03T13:12:27.602Z,16.66
2023-05-03T13:14:58.047Z,16.27
2023-05-03T13:17:25.135Z,16.32
2023-05-03T13:19:52.608Z,16.51
2023-05-03T13:22:19.376Z,16.72
2023-05-03T13:24:47.340Z,16.78
2023-05-03T13:27:15.303Z,17.40
2023-05-03T13:29:42.401Z,17.73
2023-05-03T13:32:09.713Z,16.98
2023-05-03T13:34:36.810Z,16.55
2023-05-03T13:37:06.910Z,16.22
2023-05-03T13:39:33.624Z,16.45
2023-05-03T13:42:00.403Z,17.06
2023-05-03T13:44:27.078Z,16.93
2023-05-03T13:46:53.909Z,16.93
2023-05-03T13:49:21.049Z,17.38
2023-05-03T13:51:48.176Z,17.08
2023-05-03T13:54:14.884Z,16.58
2023-05-03T13:56:43.105Z,16.41
2023-05-03T13:59:12.352Z,16.65
2023-05-03T14:01:39.601Z,17.01
2023-05-03T14:04:06.710Z,17.21
2023-05-03T14:06:33.947Z,17.10
2023-05-03T14:09:01.960Z,16.94
2023-05-03T14:11:30.612Z,17.22
2023-05-03T14:13:58.776Z,17.51
2023-05-03T14:16:39.937Z,17.50
2023-05-03T14:19:10.469Z,17.36
2023-05-03T14:21:38.031Z,16.61
2023-05-03T14:24:06.655Z,16.31
2023-05-03T14:26:34.314Z,16.29
2023-05-03T14:29:01.597Z,16.31
2023-05-03T14:31:28.405Z,15.93
2023-05-03T14:33:55.299Z,15.84
2023-05-03T14:36:22.173Z,15.76
2023-05-03T14:38:49.048Z,16.29
2023-05-03T14:41:15.724Z,17.02
2023-05-03T14:43:42.465Z,17.65
2023-05-03T14:46:10.151Z,18.13
2023-05-03T14:48:38.249Z,18.13
2023-05-03T14:51:05.661Z,18.19
2023-05-03T14:53:32.639Z,18.10
2023-05-03T14:55:59.644Z,17.52
2023-05-03T14:58:26.395Z,16.61
2023-05-03T15:00:53.304Z,16.21
2023-05-03T15:03:20.064Z,16.15
2023-05-03T15:05:48.554Z,16.01
2023-05-03T15:08:19.331Z,15.82
2023-05-03T15:10:47.827Z,15.75
2023-05-03T15:13:16.351Z,15.84
2023-05-03T15:15:43.824Z,15.83
2023-05-03T15:18:11.230Z,15.73
2023-05-03T15:20:38.862Z,16.03
2023-05-03T15:23:06.217Z,16.39
2023-05-03T15:25:33.209Z,16.43
2023-05-03T15:28:03.618Z,16.54
2023-05-03T15:30:31.691Z,16.51
2023-05-03T15:32:58.484Z,16.34
2023-05-03T15:35:25.217Z,16.37
2023-05-03T15:37:52.234Z,16.31
2023-05-03T15:40:20.550Z,16.49
2023-05-03T15:42:47.304Z,16.69
2023-05-03T15:45:14.063Z,16.68
2023-05-03T15:47:40.940Z,16.88
2023-05-03T15:50:08.763Z,16.81
2023-05-03T15:52:35.905Z,16.98
2023-05-03T15:55:03.069Z,16.92
2023-05-03T15:57:30.482Z,16.78
2023-05-03T15:59:57.508Z,16.39
2023-05-03T16:02:24.415Z,16.17
2023-05-03T16:04:51.231Z,15.99
2023-05-03T16:07:18.386Z,15.71
2023-05-03T16:09:46.225Z,15.37
2023-05-03T16:12:12.856Z,15.22
2023-05-03T16:14:40.046Z,15.13
2023-05-03T16:17:06.872Z,15.12
2023-05-03T16:19:33.782Z,15.20
2023-05-03T16:22:00.751Z,15.40
2023-05-03T16:24:28.482Z,15.51
2023-05-03T16:26:55.438Z,15.73
2023-05-03T16:29:22.354Z,15.65
2023-05-03T16:31:49.600Z,15.50
2023-05-03T16:34:16.811Z,15.48
2023-05-03T16:36:44.161Z,15.53
2023-05-03T16:39:14.891Z,15.71
2023-05-03T16:41:41.723Z,15.88
2023-05-03T16:44:08.932Z,15.74
2023-05-03T16:46:37.941Z,15.76
2023-05-03T16:49:05.611Z,15.72
2023-05-03T16:51:32.980Z,15.57
2023-05-03T16:54:01.131Z,15.50
2023-05-03T16:56:30.823Z,15.26
2023-05-03T16:58:59.060Z,15.06
2023-05-03T17:01:26.432Z,15.00
2023-05-03T17:03:53.566Z,14.94
2023-05-03T17:06:20.380Z,14.80
2023-05-03T17:08:47.145Z,14.73
2023-05-03T17:11:14.729Z,14.73
2023-05-03T17:13:42.002Z,14.53
2023-05-03T17:16:11.590Z,14.58
2023-05-03T17:18:40.451Z,14.54
2023-05-03T17:21:08.597Z,14.52
2023-05-03T17:23:38.029Z,14.55
2023-05-03T17:26:07.082Z,14.58
2023-05-03T17:28:34.371Z,14.57
2023-05-03T17:31:02.656Z,14.57
2023-05-03T17:33:29.824Z,14.60
2023-05-03T17:35:57.004Z,14.60
2023-05-03T17:38:23.952Z,14.58
2023-05-03T17:40:50.778Z,14.59
2023-05-03T17:43:17.954Z,14.58
2023-05-03T17:45:45.905Z,14.58
2023-05-03T17:48:12.979Z,14.47
2023-05-03T17:50:39.972Z,14.39
2023-05-03T17:53:07.099Z,14.36
2023-05-03T17:55:40.412Z,14.38
2023-05-03T17:58:07.248Z,14.25
2023-05-03T18:00:34.030Z,14.14
2023-05-03T18:03:01.417Z,14.09
2023-05-03T18:05:28.584Z,14.00
2023-05-03T18:07:55.383Z,13.91
2023-05-03T18:10:22.496Z,13.89
2023-05-03T18:12:49.383Z,13.91
2023-05-03T18:15:16.325Z,13.87
2023-05-03T18:17:43.539Z,13.81
2023-05-03T18:20:10.981Z,13.70
2023-05-03T18:22:38.002Z,13.62
2023-05-03T18:25:07.524Z,13.60
2023-05-03T18:27:36.854Z,13.44
2023-05-03T18:30:06.469Z,13.40
2023-05-03T18:32:33.840Z,13.34
2023-05-03T18:35:01.090Z,13.28
2023-05-03T18:37:27.894Z,13.11
2023-05-03T18:39:54.665Z,13.03
2023-05-03T18:42:22.543Z,12.84
2023-05-03T18:44:49.581Z,12.77
2023-05-03T18:47:20.640Z,12.62
2023-05-03T18:49:51.742Z,12.54
2023-05-03T18:52:22.700Z,12.50
2023-05-03T18:54:49.817Z,12.40
2023-05-03T18:57:16.805Z,12.27
2023-05-03T18:59:56.741Z,12.23
2023-05-03T19:02:30.618Z,12.26
2023-05-03T19:04:58.202Z,12.28
2023-05-03T19:07:25.233Z,12.24
2023-05-03T19:09:58.487Z,12.28
2023-05-03T19:12:25.545Z,12.20
2023-05-03T19:14:52.360Z,12.06
2023-05-03T19:17:19.146Z,11.99
2023-05-03T19:19:45.773Z,11.91
2023-05-03T19:22:12.453Z,11.80
2023-05-03T19:24:39.918Z,11.76
2023-05-03T19:27:06.599Z,11.75
2023-05-03T19:29:33.357Z,11.67
2023-05-03T19:31:59.993Z,11.65
2023-05-03T19:34:28.034Z,11.61
2023-05-03T19:36:54.831Z,11.50
2023-05-03T19:39:21.691Z,11.52
2023-05-03T19:41:48.932Z,11.41
2023-05-03T19:44:16.067Z,11.34
2023-05-03T19:46:42.880Z,11.31
2023-05-03T19:49:09.568Z,11.27
2023-05-03T19:51:36.260Z,11.24
2023-05-03T19:54:03.290Z,11.29
2023-05-03T19:56:30.031Z,11.25
2023-05-03T19:58:57.305Z,11.22
2023-05-03T20:01:24.195Z,11.20
2023-05-03T20:03:53.462Z,11.12
2023-05-03T20:06:20.667Z,11.07
2023-05-03T20:08:47.376Z,11.13
2023-05-03T20:11:14.177Z,11.10
2023-05-03T20:13:40.819Z,11.04
2023-05-03T20:16:08.334Z,10.97
2023-05-03T20:18:35.196Z,10.97
2023-05-03T20:21:03.360Z,10.96
2023-05-03T20:23:30.103Z,10.82
2023-05-03T20:25:57.106Z,10.84
2023-05-03T20:28:24.021Z,10.77
2023-05-03T20:30:50.918Z,10.78
2023-05-03T20:33:17.578Z,10.74
2023-05-03T20:35:44.498Z,10.71
2023-05-03T20:38:11.456Z,10.55
2023-05-03T20:40:38.419Z,10.65
2023-05-03T20:43:05.087Z,10.69
2023-05-03T20:45:31.963Z,10.71
2023-05-03T20:47:58.805Z,10.77
2023-05-03T20:50:25.619Z,10.74
2023-05-03T20:52:52.264Z,10.70
2023-05-03T20:55:19.074Z,10.59
2023-05-03T20:57:45.859Z,10.53
2023-05-03T21:00:13.151Z,10.54
2023-05-03T21:02:39.989Z,10.57
2023-05-03T21:05:07.093Z,10.46
2023-05-03T21:07:33.763Z,10.44
2023-05-03T21:10:00.564Z,10.47
2023-05-03T21:12:29.041Z,10.47
2023-05-03T21:14:55.749Z,10.36
2023-05-03T21:17:22.556Z,10.32
2023-05-03T21:19:49.241Z,10.30
2023-05-03T21:22:16.439Z,10.35
2023-05-03T21:24:43.128Z,10.22
2023-05-03T21:27:09.967Z,10.18
2023-05-03T21:29:37.014Z,10.19
2023-05-03T21:32:04.305Z,10.25
2023-05-03T21:34:31.108Z,10.29
2023-05-03T21:36:57.800Z,10.26
2023-05-03T21:39:24.513Z,10.30
2023-05-03T21:41:51.191Z,10.37
2023-05-03T21:44:18.721Z,10.37
2023-05-03T21:46:45.435Z,10.40
2023-05-03T21:49:12.186Z,10.35
2023-05-03T21:51:38.836Z,10.30
2023-05-03T21:54:05.924Z,10.25
2023-05-03T21:56:32.640Z,10.25
2023-05-03T21:58:59.659Z,10.29
2023-05-03T22:01:26.357Z,10.27
2023-05-03T22:03:53.348Z,10.20
2023-05-03T22:06:20.247Z,10.16
2023-05-03T22:08:47.737Z,10.15
2023-05-03T22:11:14.413Z,10.17
2023-05-03T22:13:54.553Z,10.12
2023-05-03T22:16:25.891Z,10.13
2023-05-03T22:18:52.715Z,10.15
2023-05-03T22:21:19.353Z,10.09
2023-05-03T22:23:46.119Z,10.22
2023-05-03T22:26:12.774Z,10.20
2023-05-03T22:28:39.404Z,10.16
2023-05-03T22:31:06.342Z,10.15
2023-05-03T22:33:33.042Z,10.20
2023-05-03T22:35:59.697Z,10.21
2023-05-03T22:38:26.310Z,10.17
2023-05-03T22:40:53.014Z,10.09
2023-05-03T22:43:19.756Z,10.09
2023-05-03T22:45:47.225Z,10.12
2023-05-03T22:48:13.980Z,10.08
2023-05-03T22:50:40.655Z,10.01
2023-05-03T22:53:07.314Z,10.01
2023-05-03T22:55:34.018Z,9.98
2023-05-03T22:58:01.050Z,9.91
2023-05-03T23:00:28.096Z,9.91
2023-05-03T23:02:54.825Z,9.83
2023-05-03T23:05:21.915Z,9.89
2023-05-03T23:07:48.771Z,9.90
2023-05-03T23:10:15.445Z,9.88
2023-05-03T23:12:42.248Z,9.83
2023-05-03T23:15:09.191Z,9.84
2023-05-03T23:17:35.868Z,9.81
2023-05-03T23:20:03.096Z,9.75
2023-05-03T23:22:30.031Z,9.68
2023-05-03T23:24:56.717Z,9.65
2023-05-03T23:27:23.479Z,9.66
2023-05-03T23:29:50.874Z,9.65
2023-05-03T23:32:17.988Z,9.58
2023-05-03T23:34:45.048Z,9.61
2023-05-03T23:37:11.693Z,9.59
2023-05-03T23:39:42.989Z,9.59
2023-05-03T23:42:09.876Z,9.57
2023-05-03T23:44:52.977Z,9.57
2023-05-03T23:47:21.560Z,9.53
2023-05-03T23:49:48.274Z,9.49
2023-05-03T23:52:16.970Z,9.53
2023-05-03T23:54:43.639Z,9.50
2023-05-03T23:57:10.332Z,9.41
2023-05-03T23:59:37.011Z,9.40
